New Windsor, Illinois
Current Conditions -  °F | °C
As of 2:52 AM on Saturday 01 Nov 2014 (Local Time) from KMLI Reporting Station
Clear Clear  
Wind Chill: -4°   Ceiling: Unl
Heat Index: -1°   Visibility: 10mi
Dew Point: -8°   Wind: 5mph
Humidity: 61%   Direction: 350°N
Pressure: 30.46"   Gusts: NA
Location:  41.2°N, 90.47°W
Report Text: KMLI 010752Z AUTO 35004KT 10SM CLR M01/M08 A3046 RMK AO2 SLP319 T10111078 $
Loading
Personal Weather Stations






























Interactive Weather Map
Tropical Storm Tracking
New forecast layout! Learn more

10-Day Weather Forecast

Advertisements
Track Severe Weather on mobile